sensor_id;sensor_type;location;lat;lon;timestamp;pressure;altitude;pressure_sealevel;temperature;humidity
58973;BME280;44750;52.040;7.472;2022-09-09T00:00:19;99828.28;;;16.64;0.00
58973;BME280;44750;52.040;7.472;2022-09-09T00:05:34;99834.19;;;16.54;0.00
58973;BME280;44750;52.040;7.472;2022-09-09T00:10:39;99829.63;;;16.41;0.00
58973;BME280;44750;52.040;7.472;2022-09-09T00:16:00;99840.28;;;16.56;0.00
58973;BME280;44750;52.040;7.472;2022-09-09T00:21:07;99838.81;;;16.53;0.00
58973;BME280;44750;52.040;7.472;2022-09-09T00:31:19;99866.56;;;16.57;0.00
58973;BME280;44750;52.040;7.472;2022-09-09T00:36:23;99887.56;;;16.57;0.00
58973;BME280;44750;52.040;7.472;2022-09-09T00:41:41;99886.94;;;16.54;0.00
58973;BME280;44750;52.040;7.472;2022-09-09T00:47:03;99904.19;;;16.48;0.00
58973;BME280;44750;52.040;7.472;2022-09-09T00:57:39;99897.47;;;16.31;0.00
58973;BME280;44750;52.040;7.472;2022-09-09T01:14:13;99904.63;;;16.32;0.00
58973;BME280;44750;52.040;7.472;2022-09-09T01:19:27;99919.75;;;16.28;0.00
58973;BME280;44750;52.040;7.472;2022-09-09T01:30:13;99948.09;;;16.27;0.00
58973;BME280;44750;52.040;7.472;2022-09-09T01:35:40;99944.53;;;16.19;0.00
58973;BME280;44750;52.040;7.472;2022-09-09T01:40:42;99967.22;;;16.13;0.00
58973;BME280;44750;52.040;7.472;2022-09-09T01:45:44;99961.06;;;15.98;0.00
58973;BME280;44750;52.040;7.472;2022-09-09T01:50:45;99960.44;;;15.82;0.00
58973;BME280;44750;52.040;7.472;2022-09-09T02:06:36;99997.06;;;15.60;0.00
58973;BME280;44750;52.040;7.472;2022-09-09T02:11:37;100015.09;;;15.61;0.00
58973;BME280;44750;52.040;7.472;2022-09-09T02:16:41;100012.16;;;15.55;0.00
58973;BME280;44750;52.040;7.472;2022-09-09T02:21:44;100032.69;;;15.51;0.00
58973;BME280;44750;52.040;7.472;2022-09-09T02:26:48;100038.97;;;15.52;0.00
58973;BME280;44750;52.040;7.472;2022-09-09T02:31:50;100046.97;;;15.53;0.00
58973;BME280;44750;52.040;7.472;2022-09-09T02:36:53;100044.84;;;15.49;0.00
58973;BME280;44750;52.040;7.472;2022-09-09T02:41:54;100053.25;;;15.54;0.00
58973;BME280;44750;52.040;7.472;2022-09-09T02:47:23;100051.56;;;15.46;0.00
58973;BME280;44750;52.040;7.472;2022-09-09T02:52:52;100064.78;;;15.49;0.00
58973;BME280;44750;52.040;7.472;2022-09-09T02:57:55;100074.41;;;15.45;0.00
58973;BME280;44750;52.040;7.472;2022-09-09T03:02:56;100073.75;;;15.43;0.00
58973;BME280;44750;52.040;7.472;2022-09-09T03:07:57;100086.75;;;15.41;0.00
58973;BME280;44750;52.040;7.472;2022-09-09T03:12:58;100091.56;;;15.39;0.00
58973;BME280;44750;52.040;7.472;2022-09-09T03:17:59;100085.44;;;15.30;0.00
58973;BME280;44750;52.040;7.472;2022-09-09T03:23:00;100109.38;;;15.35;0.00
58973;BME280;44750;52.040;7.472;2022-09-09T03:28:01;100109.38;;;15.35;0.00
58973;BME280;44750;52.040;7.472;2022-09-09T03:33:01;100124.53;;;15.44;0.00
58973;BME280;44750;52.040;7.472;2022-09-09T03:38:01;100128.53;;;15.48;0.00
58973;BME280;44750;52.040;7.472;2022-09-09T03:43:02;100121.19;;;15.42;0.00
58973;BME280;44750;52.040;7.472;2022-09-09T03:48:02;100150.63;;;15.53;0.00
58973;BME280;44750;52.040;7.472;2022-09-09T03:53:02;100137.97;;;15.46;0.00
58973;BME280;44750;52.040;7.472;2022-09-09T03:58:02;100150.97;;;15.44;0.00
58973;BME280;44750;52.040;7.472;2022-09-09T04:03:02;100143.78;;;15.36;0.00
58973;BME280;44750;52.040;7.472;2022-09-09T04:08:03;100151.72;;;15.31;0.00
58973;BME280;44750;52.040;7.472;2022-09-09T04:13:04;100156.91;;;15.26;0.00
58973;BME280;44750;52.040;7.472;2022-09-09T04:18:04;100168.84;;;15.25;0.00
58973;BME280;44750;52.040;7.472;2022-09-09T04:23:05;100160.38;;;15.13;0.00
58973;BME280;44750;52.040;7.472;2022-09-09T04:28:05;100180.09;;;15.15;0.00
58973;BME280;44750;52.040;7.472;2022-09-09T04:33:06;100193.53;;;15.16;0.00
58973;BME280;44750;52.040;7.472;2022-09-09T04:38:06;100212.63;;;15.16;0.00
58973;BME280;44750;52.040;7.472;2022-09-09T04:43:08;100227.34;;;15.22;0.00
58973;BME280;44750;52.040;7.472;2022-09-09T04:48:08;100238.06;;;15.24;0.00
58973;BME280;44750;52.040;7.472;2022-09-09T04:53:09;100224.56;;;15.15;0.00
58973;BME280;44750;52.040;7.472;2022-09-09T04:58:09;100236.00;;;15.04;0.00
58973;BME280;44750;52.040;7.472;2022-09-09T05:03:09;100239.34;;;15.06;0.00
58973;BME280;44750;52.040;7.472;2022-09-09T05:08:09;100237.94;;;15.10;0.00
58973;BME280;44750;52.040;7.472;2022-09-09T05:13:10;100261.13;;;15.21;0.00
58973;BME280;44750;52.040;7.472;2022-09-09T05:18:10;100278.84;;;15.32;0.00
58973;BME280;44750;52.040;7.472;2022-09-09T05:23:10;100271.06;;;15.29;0.00
58973;BME280;44750;52.040;7.472;2022-09-09T05:28:10;100273.44;;;15.38;0.00
58973;BME280;44750;52.040;7.472;2022-09-09T05:33:11;100278.19;;;15.51;0.00
58973;BME280;44750;52.040;7.472;2022-09-09T05:38:11;100292.47;;;15.53;0.00
58973;BME280;44750;52.040;7.472;2022-09-09T05:43:11;100305.59;;;15.65;0.00
58973;BME280;44750;52.040;7.472;2022-09-09T05:48:11;100307.25;;;15.66;0.00
58973;BME280;44750;52.040;7.472;2022-09-09T05:53:11;100308.53;;;15.70;0.00
58973;BME280;44750;52.040;7.472;2022-09-09T05:58:12;100299.31;;;15.71;0.00
58973;BME280;44750;52.040;7.472;2022-09-09T06:03:12;100299.88;;;15.81;0.00
58973;BME280;44750;52.040;7.472;2022-09-09T06:08:12;100295.63;;;15.79;0.00
58973;BME280;44750;52.040;7.472;2022-09-09T06:13:12;100303.47;;;15.88;0.00
58973;BME280;44750;52.040;7.472;2022-09-09T06:18:13;100310.88;;;15.95;0.00
58973;BME280;44750;52.040;7.472;2022-09-09T06:23:13;100311.38;;;16.05;0.00
58973;BME280;44750;52.040;7.472;2022-09-09T06:28:13;100307.25;;;16.16;0.00
58973;BME280;44750;52.040;7.472;2022-09-09T06:33:13;100285.22;;;16.17;0.00
58973;BME280;44750;52.040;7.472;2022-09-09T06:38:13;100312.06;;;16.42;0.00
58973;BME280;44750;52.040;7.472;2022-09-09T06:43:14;100300.09;;;16.50;0.00
58973;BME280;44750;52.040;7.472;2022-09-09T06:48:14;100296.81;;;16.68;0.00
58973;BME280;44750;52.040;7.472;2022-09-09T06:53:16;100276.06;;;16.80;0.00
58973;BME280;44750;52.040;7.472;2022-09-09T06:58:16;100267.47;;;16.83;0.00
58973;BME280;44750;52.040;7.472;2022-09-09T07:03:17;100256.56;;;16.90;0.00
58973;BME280;44750;52.040;7.472;2022-09-09T07:08:17;100221.38;;;16.80;0.00
58973;BME280;44750;52.040;7.472;2022-09-09T07:13:17;100222.91;;;16.90;0.00
58973;BME280;44750;52.040;7.472;2022-09-09T07:18:18;100214.50;;;16.91;0.00
58973;BME280;44750;52.040;7.472;2022-09-09T07:23:18;100222.34;;;17.08;0.00
58973;BME280;44750;52.040;7.472;2022-09-09T07:28:19;100210.97;;;17.24;0.00
58973;BME280;44750;52.040;7.472;2022-09-09T07:33:20;100214.16;;;17.48;0.00
58973;BME280;44750;52.040;7.472;2022-09-09T07:38:20;100226.03;;;18.27;0.00
58973;BME280;44750;52.040;7.472;2022-09-09T07:43:26;100167.34;;;18.48;0.00
58973;BME280;44750;52.040;7.472;2022-09-09T07:48:27;100113.97;;;18.90;0.00
58973;BME280;44750;52.040;7.472;2022-09-09T07:53:27;100010.78;;;18.70;0.00
58973;BME280;44750;52.040;7.472;2022-09-09T07:58:27;99941.47;;;18.81;0.00
58973;BME280;44750;52.040;7.472;2022-09-09T08:03:29;99911.44;;;18.93;0.00
58973;BME280;44750;52.040;7.472;2022-09-09T08:08:29;99884.09;;;19.05;0.00
58973;BME280;44750;52.040;7.472;2022-09-09T08:13:29;99789.38;;;18.84;0.00
58973;BME280;44750;52.040;7.472;2022-09-09T08:18:30;99752.94;;;18.65;0.00
58973;BME280;44750;52.040;7.472;2022-09-09T08:23:30;99755.97;;;18.94;0.00
58973;BME280;44750;52.040;7.472;2022-09-09T08:28:30;99795.38;;;19.84;0.00
58973;BME280;44750;52.040;7.472;2022-09-09T08:33:30;99743.53;;;20.11;0.00
58973;BME280;44750;52.040;7.472;2022-09-09T08:38:31;99745.28;;;20.53;0.00
58973;BME280;44750;52.040;7.472;2022-09-09T08:43:31;99680.53;;;20.45;0.00
58973;BME280;44750;52.040;7.472;2022-09-09T08:54:23;99533.06;;;19.69;0.00
58973;BME280;44750;52.040;7.472;2022-09-09T08:59:27;99560.28;;;19.71;0.00
58973;BME280;44750;52.040;7.472;2022-09-09T09:15:18;99501.78;;;19.94;0.00
58973;BME280;44750;52.040;7.472;2022-09-09T09:20:25;99521.44;;;20.32;0.00
58973;BME280;44750;52.040;7.472;2022-09-09T09:25:35;99451.88;;;20.48;0.00
58973;BME280;44750;52.040;7.472;2022-09-09T09:30:49;99531.34;;;20.96;0.00
58973;BME280;44750;52.040;7.472;2022-09-09T09:35:50;99568.09;;;21.80;0.00
58973;BME280;44750;52.040;7.472;2022-09-09T09:40:55;99417.16;;;20.76;22.23
58973;BME280;44750;52.040;7.472;2022-09-09T09:45:57;99584.00;;;21.38;14.54
58973;BME280;44750;52.040;7.472;2022-09-09T09:51:11;99525.03;;;21.96;23.77
58973;BME280;44750;52.040;7.472;2022-09-09T09:56:13;99484.50;;;21.69;38.17
58973;BME280;44750;52.040;7.472;2022-09-09T10:01:22;99415.56;;;21.86;52.11
58973;BME280;44750;52.040;7.472;2022-09-09T10:06:31;99383.38;;;21.92;68.73
58973;BME280;44750;52.040;7.472;2022-09-09T10:22:27;99313.56;;;22.13;93.99
58973;BME280;44750;52.040;7.472;2022-09-09T10:28:07;99267.28;;;22.53;93.47
58973;BME280;44750;52.040;7.472;2022-09-09T10:33:42;99180.56;;;23.12;100.00
58973;BME280;44750;52.040;7.472;2022-09-09T10:38:53;99124.97;;;22.47;100.00
58973;BME280;44750;52.040;7.472;2022-09-09T10:54:56;98986.44;;;21.40;100.00
58973;BME280;44750;52.040;7.472;2022-09-09T11:05:21;98991.63;;;21.79;100.00
58973;BME280;44750;52.040;7.472;2022-09-09T11:15:39;98981.00;;;22.24;100.00
58973;BME280;44750;52.040;7.472;2022-09-09T11:20:42;98940.22;;;22.31;100.00
58973;BME280;44750;52.040;7.472;2022-09-09T11:25:56;98931.38;;;22.09;100.00
58973;BME280;44750;52.040;7.472;2022-09-09T11:41:33;99453.25;;;23.10;100.00
58973;BME280;44750;52.040;7.472;2022-09-09T11:46:36;99438.50;;;23.32;100.00
58973;BME280;44750;52.040;7.472;2022-09-09T11:51:38;99378.94;;;22.50;100.00
58973;BME280;44750;52.040;7.472;2022-09-09T12:01:42;99425.81;;;22.93;100.00
58973;BME280;44750;52.040;7.472;2022-09-09T12:07:28;99346.88;;;22.82;100.00
58973;BME280;44750;52.040;7.472;2022-09-09T12:12:28;99360.19;;;22.52;100.00
58973;BME280;44750;52.040;7.472;2022-09-09T12:17:31;99320.13;;;22.07;100.00
58973;BME280;44750;52.040;7.472;2022-09-09T12:22:35;99368.09;;;22.06;100.00
58973;BME280;44750;52.040;7.472;2022-09-09T12:27:58;99373.38;;;22.13;100.00
58973;BME280;44750;52.040;7.472;2022-09-09T12:33:08;99369.19;;;22.37;100.00
58973;BME280;44750;52.040;7.472;2022-09-09T12:38:17;99346.84;;;22.39;100.00
58973;BME280;44750;52.040;7.472;2022-09-09T12:43:46;99342.31;;;22.23;100.00
58973;BME280;44750;52.040;7.472;2022-09-09T12:54:05;99355.72;;;22.09;100.00
58973;BME280;44750;52.040;7.472;2022-09-09T12:59:21;99442.13;;;22.95;100.00
58973;BME280;44750;52.040;7.472;2022-09-09T13:04:22;99311.75;;;22.67;100.00
58973;BME280;44750;52.040;7.472;2022-09-09T13:09:22;99296.28;;;22.61;100.00
58973;BME280;44750;52.040;7.472;2022-09-09T13:14:35;99347.34;;;22.74;100.00
58973;BME280;44750;52.040;7.472;2022-09-09T13:19:37;99353.81;;;23.58;100.00
58973;BME280;44750;52.040;7.472;2022-09-09T13:24:38;99230.88;;;22.56;100.00
58973;BME280;44750;52.040;7.472;2022-09-09T13:29:39;99221.75;;;21.65;100.00
58973;BME280;44750;52.040;7.472;2022-09-09T13:34:39;99328.53;;;20.69;100.00
58973;BME280;44750;52.040;7.472;2022-09-09T13:39:39;99470.56;;;20.46;100.00
58973;BME280;44750;52.040;7.472;2022-09-09T13:44:40;99531.00;;;20.29;83.88
58973;BME280;44750;52.040;7.472;2022-09-09T13:49:41;99595.81;;;20.71;60.84
58973;BME280;44750;52.040;7.472;2022-09-09T13:54:41;99580.28;;;20.65;58.81
58973;BME280;44750;52.040;7.472;2022-09-09T13:59:41;99579.13;;;20.61;61.17
58973;BME280;44750;52.040;7.472;2022-09-09T14:04:42;99572.72;;;20.43;60.81
58973;BME280;44750;52.040;7.472;2022-09-09T14:09:43;99600.03;;;20.33;57.37
58973;BME280;44750;52.040;7.472;2022-09-09T14:14:43;99616.50;;;20.04;51.92
58973;BME280;44750;52.040;7.472;2022-09-09T14:19:44;99671.06;;;19.41;27.53
58973;BME280;44750;52.040;7.472;2022-09-09T14:24:44;99745.63;;;19.50;0.00
58973;BME280;44750;52.040;7.472;2022-09-09T14:29:44;99763.31;;;19.54;0.00
58973;BME280;44750;52.040;7.472;2022-09-09T14:34:44;99748.88;;;19.59;0.00
58973;BME280;44750;52.040;7.472;2022-09-09T14:39:45;99723.25;;;19.77;0.00
58973;BME280;44750;52.040;7.472;2022-09-09T14:44:45;99749.41;;;20.03;0.00
58973;BME280;44750;52.040;7.472;2022-09-09T14:49:45;99789.56;;;20.28;0.00
58973;BME280;44750;52.040;7.472;2022-09-09T14:54:46;99769.25;;;20.29;0.00
58973;BME280;44750;52.040;7.472;2022-09-09T14:59:46;99777.13;;;20.13;0.00
58973;BME280;44750;52.040;7.472;2022-09-09T15:04:46;99796.34;;;20.13;0.00
58973;BME280;44750;52.040;7.472;2022-09-09T15:09:46;99804.97;;;20.17;0.00
58973;BME280;44750;52.040;7.472;2022-09-09T15:14:47;99779.06;;;20.13;0.00
58973;BME280;44750;52.040;7.472;2022-09-09T15:19:47;99740.22;;;20.09;0.00
58973;BME280;44750;52.040;7.472;2022-09-09T15:24:47;99718.38;;;19.91;0.00
58973;BME280;44750;52.040;7.472;2022-09-09T15:29:47;99750.97;;;19.99;0.00
58973;BME280;44750;52.040;7.472;2022-09-09T15:34:48;99716.34;;;19.86;0.00
58973;BME280;44750;52.040;7.472;2022-09-09T15:39:48;99687.88;;;19.57;0.00
58973;BME280;44750;52.040;7.472;2022-09-09T15:44:48;99740.28;;;19.67;0.00
58973;BME280;44750;52.040;7.472;2022-09-09T15:49:48;99744.72;;;19.68;0.00
58973;BME280;44750;52.040;7.472;2022-09-09T15:54:48;99777.19;;;19.71;0.00
58973;BME280;44750;52.040;7.472;2022-09-09T15:59:49;99781.66;;;19.42;0.00
58973;BME280;44750;52.040;7.472;2022-09-09T16:04:49;99823.88;;;19.41;0.00
58973;BME280;44750;52.040;7.472;2022-09-09T16:09:49;99847.06;;;19.14;0.00
58973;BME280;44750;52.040;7.472;2022-09-09T16:14:49;99856.34;;;18.95;0.00
58973;BME280;44750;52.040;7.472;2022-09-09T16:19:49;99839.19;;;18.62;0.00
58973;BME280;44750;52.040;7.472;2022-09-09T16:24:50;99815.31;;;18.26;0.00
58973;BME280;44750;52.040;7.472;2022-09-09T16:29:50;99806.41;;;18.12;0.00
58973;BME280;44750;52.040;7.472;2022-09-09T16:34:50;99779.19;;;17.92;0.00
58973;BME280;44750;52.040;7.472;2022-09-09T16:39:50;99755.03;;;17.57;0.00
58973;BME280;44750;52.040;7.472;2022-09-09T16:44:51;99748.44;;;17.39;0.00
58973;BME280;44750;52.040;7.472;2022-09-09T16:49:51;99728.34;;;17.27;0.00
58973;BME280;44750;52.040;7.472;2022-09-09T16:54:51;99749.53;;;17.38;0.00
58973;BME280;44750;52.040;7.472;2022-09-09T16:59:51;99734.97;;;17.37;0.00
58973;BME280;44750;52.040;7.472;2022-09-09T17:04:52;99767.13;;;17.49;0.00
58973;BME280;44750;52.040;7.472;2022-09-09T17:09:52;99765.94;;;17.38;0.00
58973;BME280;44750;52.040;7.472;2022-09-09T17:14:54;99769.94;;;17.35;0.00
58973;BME280;44750;52.040;7.472;2022-09-09T17:19:54;99775.00;;;17.32;0.00
58973;BME280;44750;52.040;7.472;2022-09-09T17:24:54;99798.16;;;17.29;0.00
58973;BME280;44750;52.040;7.472;2022-09-09T17:29:54;99810.78;;;17.30;0.00
58973;BME280;44750;52.040;7.472;2022-09-09T17:34:54;99824.19;;;17.38;0.00
58973;BME280;44750;52.040;7.472;2022-09-09T17:39:55;99827.06;;;17.18;0.00
58973;BME280;44750;52.040;7.472;2022-09-09T17:44:55;99845.75;;;17.21;0.00
58973;BME280;44750;52.040;7.472;2022-09-09T17:49:55;99854.38;;;17.25;0.00
58973;BME280;44750;52.040;7.472;2022-09-09T17:54:55;99850.47;;;17.08;0.00
58973;BME280;44750;52.040;7.472;2022-09-09T17:59:56;99900.00;;;17.25;0.00
58973;BME280;44750;52.040;7.472;2022-09-09T18:04:56;99893.16;;;17.02;0.00
58973;BME280;44750;52.040;7.472;2022-09-09T18:09:56;99924.69;;;17.04;0.00
58973;BME280;44750;52.040;7.472;2022-09-09T18:14:56;99917.16;;;16.86;0.00
58973;BME280;44750;52.040;7.472;2022-09-09T18:19:57;99943.03;;;16.84;0.00
58973;BME280;44750;52.040;7.472;2022-09-09T18:24:57;99949.75;;;16.81;0.00
58973;BME280;44750;52.040;7.472;2022-09-09T18:29:57;99980.03;;;16.93;0.00
58973;BME280;44750;52.040;7.472;2022-09-09T18:34:57;99968.44;;;16.84;0.00
58973;BME280;44750;52.040;7.472;2022-09-09T18:39:57;99977.09;;;16.75;0.00
58973;BME280;44750;52.040;7.472;2022-09-09T18:44:58;100001.03;;;16.72;0.00
58973;BME280;44750;52.040;7.472;2022-09-09T18:49:58;100000.66;;;16.76;0.00
58973;BME280;44750;52.040;7.472;2022-09-09T18:54:58;100015.34;;;16.75;0.00
58973;BME280;44750;52.040;7.472;2022-09-09T18:59:59;100022.06;;;16.72;0.00
58973;BME280;44750;52.040;7.472;2022-09-09T19:04:59;100018.31;;;16.60;0.00
58973;BME280;44750;52.040;7.472;2022-09-09T19:09:59;100024.59;;;16.47;0.00
58973;BME280;44750;52.040;7.472;2022-09-09T19:14:59;100056.13;;;16.49;0.00
58973;BME280;44750;52.040;7.472;2022-09-09T19:20:00;100062.19;;;16.38;0.00
58973;BME280;44750;52.040;7.472;2022-09-09T19:25:00;100075.66;;;16.46;0.00
58973;BME280;44750;52.040;7.472;2022-09-09T19:30:01;100095.19;;;16.43;0.00
58973;BME280;44750;52.040;7.472;2022-09-09T19:35:01;100120.63;;;16.50;0.00
58973;BME280;44750;52.040;7.472;2022-09-09T19:40:02;100114.94;;;16.45;0.00
58973;BME280;44750;52.040;7.472;2022-09-09T19:45:03;100135.13;;;16.44;0.00
58973;BME280;44750;52.040;7.472;2022-09-09T19:50:03;100148.34;;;16.47;0.00
58973;BME280;44750;52.040;7.472;2022-09-09T19:55:04;100120.34;;;16.18;0.00
58973;BME280;44750;52.040;7.472;2022-09-09T20:00:05;100165.78;;;16.33;0.00
58973;BME280;44750;52.040;7.472;2022-09-09T20:05:06;100127.00;;;16.02;0.00
58973;BME280;44750;52.040;7.472;2022-09-09T20:10:06;100170.72;;;16.16;0.00
58973;BME280;44750;52.040;7.472;2022-09-09T20:15:07;100167.97;;;16.09;0.00
58973;BME280;44750;52.040;7.472;2022-09-09T20:20:07;100161.78;;;15.94;0.00
58973;BME280;44750;52.040;7.472;2022-09-09T20:25:08;100199.66;;;16.03;0.00
58973;BME280;44750;52.040;7.472;2022-09-09T20:30:08;100201.53;;;16.03;0.00
58973;BME280;44750;52.040;7.472;2022-09-09T20:35:09;100217.94;;;16.10;0.00
58973;BME280;44750;52.040;7.472;2022-09-09T20:40:09;100191.56;;;15.88;0.00
58973;BME280;44750;52.040;7.472;2022-09-09T20:45:09;100221.25;;;15.98;0.00
58973;BME280;44750;52.040;7.472;2022-09-09T20:50:09;100219.94;;;15.87;0.00
58973;BME280;44750;52.040;7.472;2022-09-09T20:55:10;100265.44;;;16.15;0.00
58973;BME280;44750;52.040;7.472;2022-09-09T21:00:10;100270.69;;;16.10;0.00
58973;BME280;44750;52.040;7.472;2022-09-09T21:05:11;100264.31;;;16.03;0.00
58973;BME280;44750;52.040;7.472;2022-09-09T21:10:11;100237.75;;;15.83;0.00
58973;BME280;44750;52.040;7.472;2022-09-09T21:15:11;100284.56;;;16.15;0.00
58973;BME280;44750;52.040;7.472;2022-09-09T21:20:11;100285.78;;;16.06;0.00
58973;BME280;44750;52.040;7.472;2022-09-09T21:25:11;100293.06;;;15.99;0.00
58973;BME280;44750;52.040;7.472;2022-09-09T21:30:12;100305.94;;;16.05;0.00
58973;BME280;44750;52.040;7.472;2022-09-09T21:35:13;100335.81;;;16.13;0.00
58973;BME280;44750;52.040;7.472;2022-09-09T21:40:13;100331.78;;;16.09;0.00
58973;BME280;44750;52.040;7.472;2022-09-09T21:45:14;100331.47;;;15.97;0.00
58973;BME280;44750;52.040;7.472;2022-09-09T21:50:14;100330.16;;;15.86;0.00
58973;BME280;44750;52.040;7.472;2022-09-09T21:55:15;100368.41;;;15.93;0.00
58973;BME280;44750;52.040;7.472;2022-09-09T22:00:15;100374.69;;;15.94;0.00
58973;BME280;44750;52.040;7.472;2022-09-09T22:05:15;100382.56;;;15.82;0.00
58973;BME280;44750;52.040;7.472;2022-09-09T22:10:16;100381.03;;;15.79;0.00
58973;BME280;44750;52.040;7.472;2022-09-09T22:15:16;100407.50;;;15.79;0.00
58973;BME280;44750;52.040;7.472;2022-09-09T22:20:16;100406.72;;;15.63;0.00
58973;BME280;44750;52.040;7.472;2022-09-09T22:25:17;100426.28;;;15.67;0.00
58973;BME280;44750;52.040;7.472;2022-09-09T22:30:17;100434.84;;;15.64;0.00
58973;BME280;44750;52.040;7.472;2022-09-09T22:35:17;100432.88;;;15.58;0.00
58973;BME280;44750;52.040;7.472;2022-09-09T22:40:17;100444.66;;;15.58;0.00
58973;BME280;44750;52.040;7.472;2022-09-09T22:45:17;100471.22;;;15.71;0.00
58973;BME280;44750;52.040;7.472;2022-09-09T22:50:18;100464.88;;;15.64;0.00
58973;BME280;44750;52.040;7.472;2022-09-09T22:55:18;100483.19;;;15.70;0.00
58973;BME280;44750;52.040;7.472;2022-09-09T23:00:18;100469.38;;;15.57;0.00
58973;BME280;44750;52.040;7.472;2022-09-09T23:05:19;100489.03;;;15.67;0.00
58973;BME280;44750;52.040;7.472;2022-09-09T23:10:19;100493.66;;;15.66;0.00
58973;BME280;44750;52.040;7.472;2022-09-09T23:15:19;100489.69;;;15.69;0.00
58973;BME280;44750;52.040;7.472;2022-09-09T23:20:20;100500.88;;;15.74;0.00
58973;BME280;44750;52.040;7.472;2022-09-09T23:25:20;100515.28;;;15.83;0.00
58973;BME280;44750;52.040;7.472;2022-09-09T23:30:20;100509.72;;;15.76;0.00
58973;BME280;44750;52.040;7.472;2022-09-09T23:35:21;100505.47;;;15.74;0.00
58973;BME280;44750;52.040;7.472;2022-09-09T23:40:21;100500.03;;;15.74;0.00
58973;BME280;44750;52.040;7.472;2022-09-09T23:45:21;100508.31;;;15.80;0.00
58973;BME280;44750;52.040;7.472;2022-09-09T23:50:22;100506.78;;;15.78;0.00
58973;BME280;44750;52.040;7.472;2022-09-09T23:55:22;100507.28;;;15.81;0.00
